sensor_id;sensor_type;location;lat;lon;timestamp;pressure;altitude;pressure_sealevel;temperature;humidity
65173;BME280;69059;52.218;5.172;2023-05-31T00:01:01;101659.56;;;12.16;100.00
65173;BME280;69059;52.218;5.172;2023-05-31T00:03:29;101629.34;;;11.98;100.00
65173;BME280;69059;52.218;5.172;2023-05-31T00:05:57;101616.22;;;12.14;100.00
65173;BME280;69059;52.218;5.172;2023-05-31T00:08:24;101650.09;;;12.07;100.00
65173;BME280;69059;52.218;5.172;2023-05-31T00:10:54;101641.13;;;12.02;100.00
65173;BME280;69059;52.218;5.172;2023-05-31T00:13:21;101633.75;;;12.05;100.00
65173;BME280;69059;52.218;5.172;2023-05-31T00:15:49;101662.53;;;12.05;100.00
65173;BME280;69059;52.218;5.172;2023-05-31T00:18:17;101677.28;;;11.98;100.00
65173;BME280;69059;52.218;5.172;2023-05-31T00:20:45;101680.38;;;12.02;100.00
65173;BME280;69059;52.218;5.172;2023-05-31T00:23:13;101611.69;;;12.00;100.00
65173;BME280;69059;52.218;5.172;2023-05-31T00:25:41;101611.53;;;12.01;100.00
65173;BME280;69059;52.218;5.172;2023-05-31T00:28:10;101614.63;;;11.97;100.00
65173;BME280;69059;52.218;5.172;2023-05-31T00:30:38;101595.66;;;11.95;100.00
65173;BME280;69059;52.218;5.172;2023-05-31T00:33:06;101583.28;;;11.89;100.00
65173;BME280;69059;52.218;5.172;2023-05-31T00:35:34;101585.84;;;11.97;100.00
65173;BME280;69059;52.218;5.172;2023-05-31T00:38:04;101602.91;;;11.84;100.00
65173;BME280;69059;52.218;5.172;2023-05-31T00:40:32;101550.41;;;11.78;100.00
65173;BME280;69059;52.218;5.172;2023-05-31T00:43:00;101564.97;;;11.80;100.00
65173;BME280;69059;52.218;5.172;2023-05-31T00:45:29;101544.19;;;11.79;100.00
65173;BME280;69059;52.218;5.172;2023-05-31T00:48:00;101537.19;;;11.71;100.00
65173;BME280;69059;52.218;5.172;2023-05-31T00:50:29;101536.84;;;11.74;100.00
65173;BME280;69059;52.218;5.172;2023-05-31T00:52:59;101517.72;;;11.66;100.00
65173;BME280;69059;52.218;5.172;2023-05-31T00:55:28;101449.63;;;11.51;100.00
65173;BME280;69059;52.218;5.172;2023-05-31T00:57:58;101429.44;;;11.68;100.00
65173;BME280;69059;52.218;5.172;2023-05-31T01:00:27;101414.44;;;11.62;100.00
65173;BME280;69059;52.218;5.172;2023-05-31T01:02:56;101421.16;;;11.64;100.00
65173;BME280;69059;52.218;5.172;2023-05-31T01:05:27;101392.72;;;11.61;100.00
65173;BME280;69059;52.218;5.172;2023-05-31T01:07:57;101341.91;;;11.56;100.00
65173;BME280;69059;52.218;5.172;2023-05-31T01:10:25;101333.25;;;11.55;100.00
65173;BME280;69059;52.218;5.172;2023-05-31T01:12:57;101374.91;;;11.57;100.00
65173;BME280;69059;52.218;5.172;2023-05-31T01:15:32;101350.06;;;11.61;100.00
65173;BME280;69059;52.218;5.172;2023-05-31T01:18:07;101349.41;;;11.59;100.00
65173;BME280;69059;52.218;5.172;2023-05-31T01:20:38;101332.47;;;11.46;100.00
65173;BME280;69059;52.218;5.172;2023-05-31T01:23:18;101279.69;;;11.51;100.00
65173;BME280;69059;52.218;5.172;2023-05-31T01:25:58;101222.84;;;11.45;100.00
65173;BME280;69059;52.218;5.172;2023-05-31T01:28:36;101201.28;;;11.43;100.00
65173;BME280;69059;52.218;5.172;2023-05-31T01:31:07;101188.75;;;11.38;100.00
65173;BME280;69059;52.218;5.172;2023-05-31T01:33:37;101140.59;;;11.33;100.00
65173;BME280;69059;52.218;5.172;2023-05-31T01:36:05;101119.84;;;11.31;100.00
65173;BME280;69059;52.218;5.172;2023-05-31T01:38:33;101092.88;;;11.31;100.00
65173;BME280;69059;52.218;5.172;2023-05-31T01:41:01;101057.94;;;11.32;100.00
65173;BME280;69059;52.218;5.172;2023-05-31T01:43:37;101051.31;;;11.21;100.00
65173;BME280;69059;52.218;5.172;2023-05-31T01:46:05;101073.34;;;11.27;100.00
65173;BME280;69059;52.218;5.172;2023-05-31T01:48:34;101096.97;;;11.33;100.00
65173;BME280;69059;52.218;5.172;2023-05-31T01:51:03;101134.72;;;11.31;100.00
65173;BME280;69059;52.218;5.172;2023-05-31T01:53:33;101093.31;;;11.20;100.00
65173;BME280;69059;52.218;5.172;2023-05-31T01:56:02;101107.53;;;11.17;100.00
65173;BME280;69059;52.218;5.172;2023-05-31T01:58:32;101106.72;;;11.17;100.00
65173;BME280;69059;52.218;5.172;2023-05-31T02:01:04;101128.44;;;11.17;100.00
65173;BME280;69059;52.218;5.172;2023-05-31T02:03:32;101129.16;;;11.11;100.00
65173;BME280;69059;52.218;5.172;2023-05-31T02:06:00;101127.63;;;11.17;100.00
65173;BME280;69059;52.218;5.172;2023-05-31T02:08:28;101122.06;;;11.20;100.00
65173;BME280;69059;52.218;5.172;2023-05-31T02:10:56;101136.44;;;11.16;100.00
65173;BME280;69059;52.218;5.172;2023-05-31T02:13:25;101113.81;;;11.08;100.00
65173;BME280;69059;52.218;5.172;2023-05-31T02:15:53;101102.22;;;11.10;100.00
65173;BME280;69059;52.218;5.172;2023-05-31T02:18:23;101105.00;;;11.09;100.00
65173;BME280;69059;52.218;5.172;2023-05-31T02:20:53;101105.88;;;11.01;100.00
65173;BME280;69059;52.218;5.172;2023-05-31T02:23:21;101111.94;;;10.94;100.00
65173;BME280;69059;52.218;5.172;2023-05-31T02:25:50;101090.72;;;10.97;100.00
65173;BME280;69059;52.218;5.172;2023-05-31T02:28:18;101084.69;;;10.96;100.00
65173;BME280;69059;52.218;5.172;2023-05-31T02:30:53;101049.69;;;10.83;100.00
65173;BME280;69059;52.218;5.172;2023-05-31T02:33:21;101042.06;;;10.96;100.00
65173;BME280;69059;52.218;5.172;2023-05-31T02:35:51;101066.09;;;10.91;100.00
65173;BME280;69059;52.218;5.172;2023-05-31T02:38:19;101070.66;;;10.89;100.00
65173;BME280;69059;52.218;5.172;2023-05-31T02:40:47;101062.22;;;10.87;100.00
65173;BME280;69059;52.218;5.172;2023-05-31T02:43:15;101032.84;;;10.85;100.00
65173;BME280;69059;52.218;5.172;2023-05-31T02:45:43;101037.09;;;10.86;100.00
65173;BME280;69059;52.218;5.172;2023-05-31T02:48:11;101039.41;;;10.81;100.00
65173;BME280;69059;52.218;5.172;2023-05-31T02:50:38;101019.81;;;10.77;100.00
65173;BME280;69059;52.218;5.172;2023-05-31T02:53:08;101037.78;;;10.80;100.00
65173;BME280;69059;52.218;5.172;2023-05-31T02:55:35;101066.50;;;10.80;100.00
65173;BME280;69059;52.218;5.172;2023-05-31T02:58:06;101081.19;;;10.81;100.00
65173;BME280;69059;52.218;5.172;2023-05-31T03:00:34;101096.56;;;10.76;100.00
65173;BME280;69059;52.218;5.172;2023-05-31T03:03:02;101104.75;;;10.73;100.00
65173;BME280;69059;52.218;5.172;2023-05-31T03:05:30;101109.63;;;10.76;100.00
65173;BME280;69059;52.218;5.172;2023-05-31T03:07:58;101111.28;;;10.69;100.00
65173;BME280;69059;52.218;5.172;2023-05-31T03:10:27;101072.47;;;10.66;100.00
65173;BME280;69059;52.218;5.172;2023-05-31T03:12:54;101061.19;;;10.65;100.00
65173;BME280;69059;52.218;5.172;2023-05-31T03:15:22;101037.19;;;10.47;100.00
65173;BME280;69059;52.218;5.172;2023-05-31T03:17:50;101053.91;;;10.61;100.00
65173;BME280;69059;52.218;5.172;2023-05-31T03:20:18;100969.59;;;10.52;100.00
65173;BME280;69059;52.218;5.172;2023-05-31T03:22:46;100909.44;;;10.46;100.00
65173;BME280;69059;52.218;5.172;2023-05-31T03:25:15;100874.81;;;10.52;100.00
65173;BME280;69059;52.218;5.172;2023-05-31T03:27:44;100857.00;;;10.55;100.00
65173;BME280;69059;52.218;5.172;2023-05-31T03:30:13;100865.16;;;10.52;100.00
65173;BME280;69059;52.218;5.172;2023-05-31T03:32:41;100845.91;;;10.53;100.00
65173;BME280;69059;52.218;5.172;2023-05-31T03:35:09;100840.69;;;10.53;100.00
65173;BME280;69059;52.218;5.172;2023-05-31T03:37:36;100827.56;;;10.47;100.00
65173;BME280;69059;52.218;5.172;2023-05-31T03:40:05;100837.72;;;10.56;100.00
65173;BME280;69059;52.218;5.172;2023-05-31T03:42:34;100848.00;;;10.58;100.00
65173;BME280;69059;52.218;5.172;2023-05-31T03:45:03;100837.38;;;10.59;100.00
65173;BME280;69059;52.218;5.172;2023-05-31T03:47:31;100841.50;;;10.54;100.00
65173;BME280;69059;52.218;5.172;2023-05-31T03:49:59;100855.38;;;10.54;100.00
65173;BME280;69059;52.218;5.172;2023-05-31T03:52:27;100865.63;;;10.56;100.00
65173;BME280;69059;52.218;5.172;2023-05-31T03:54:55;100862.50;;;10.60;100.00
65173;BME280;69059;52.218;5.172;2023-05-31T03:57:23;100870.69;;;10.57;100.00
65173;BME280;69059;52.218;5.172;2023-05-31T03:59:51;100858.78;;;10.55;100.00
65173;BME280;69059;52.218;5.172;2023-05-31T04:02:21;100848.53;;;10.53;100.00
65173;BME280;69059;52.218;5.172;2023-05-31T04:04:49;100828.44;;;10.54;100.00
65173;BME280;69059;52.218;5.172;2023-05-31T04:07:17;100833.66;;;10.54;100.00
65173;BME280;69059;52.218;5.172;2023-05-31T04:09:44;100839.34;;;10.57;100.00
65173;BME280;69059;52.218;5.172;2023-05-31T04:12:12;100849.63;;;10.59;100.00
65173;BME280;69059;52.218;5.172;2023-05-31T04:14:40;100843.88;;;10.63;100.00
65173;BME280;69059;52.218;5.172;2023-05-31T04:17:08;100824.50;;;10.58;100.00
65173;BME280;69059;52.218;5.172;2023-05-31T04:19:37;100787.84;;;10.36;100.00
65173;BME280;69059;52.218;5.172;2023-05-31T04:22:05;100838.84;;;10.62;100.00
65173;BME280;69059;52.218;5.172;2023-05-31T04:24:33;100834.84;;;10.66;100.00
65173;BME280;69059;52.218;5.172;2023-05-31T04:27:00;100804.16;;;10.68;100.00
65173;BME280;69059;52.218;5.172;2023-05-31T04:29:30;100788.84;;;10.65;100.00
65173;BME280;69059;52.218;5.172;2023-05-31T04:31:57;100756.00;;;10.56;100.00
65173;BME280;69059;52.218;5.172;2023-05-31T04:34:26;100694.25;;;10.63;100.00
65173;BME280;69059;52.218;5.172;2023-05-31T04:36:56;100661.56;;;10.67;100.00
65173;BME280;69059;52.218;5.172;2023-05-31T04:39:24;100621.50;;;10.74;100.00
65173;BME280;69059;52.218;5.172;2023-05-31T04:41:52;100612.84;;;10.74;100.00
65173;BME280;69059;52.218;5.172;2023-05-31T04:44:20;100588.97;;;10.77;100.00
65173;BME280;69059;52.218;5.172;2023-05-31T04:46:47;100534.06;;;10.70;100.00
65173;BME280;69059;52.218;5.172;2023-05-31T04:49:15;100486.53;;;10.75;100.00
65173;BME280;69059;52.218;5.172;2023-05-31T04:51:43;100468.66;;;10.78;100.00
65173;BME280;69059;52.218;5.172;2023-05-31T04:54:12;100452.00;;;10.80;100.00
65173;BME280;69059;52.218;5.172;2023-05-31T04:56:40;100403.19;;;10.80;100.00
65173;BME280;69059;52.218;5.172;2023-05-31T04:59:08;100369.06;;;10.82;100.00
65173;BME280;69059;52.218;5.172;2023-05-31T05:01:35;100330.34;;;10.92;100.00
65173;BME280;69059;52.218;5.172;2023-05-31T05:04:03;100312.50;;;11.02;100.00
65173;BME280;69059;52.218;5.172;2023-05-31T05:06:31;100311.13;;;10.99;100.00
65173;BME280;69059;52.218;5.172;2023-05-31T05:09:00;100288.59;;;10.98;100.00
65173;BME280;69059;52.218;5.172;2023-05-31T05:11:29;100223.31;;;11.05;100.00
65173;BME280;69059;52.218;5.172;2023-05-31T05:13:57;100213.72;;;11.12;100.00
65173;BME280;69059;52.218;5.172;2023-05-31T05:16:25;100221.56;;;11.19;100.00
65173;BME280;69059;52.218;5.172;2023-05-31T05:18:53;100224.16;;;11.19;100.00
65173;BME280;69059;52.218;5.172;2023-05-31T05:21:21;100210.69;;;11.15;100.00
65173;BME280;69059;52.218;5.172;2023-05-31T05:23:48;100222.41;;;11.26;100.00
65173;BME280;69059;52.218;5.172;2023-05-31T05:26:16;100220.97;;;11.23;100.00
65173;BME280;69059;52.218;5.172;2023-05-31T05:28:45;100218.78;;;11.33;100.00
65173;BME280;69059;52.218;5.172;2023-05-31T05:31:13;100220.78;;;11.31;100.00
65173;BME280;69059;52.218;5.172;2023-05-31T05:33:41;100220.78;;;11.31;100.00
65173;BME280;69059;52.218;5.172;2023-05-31T05:36:09;100202.72;;;11.36;100.00
65173;BME280;69059;52.218;5.172;2023-05-31T05:38:37;100203.53;;;11.43;100.00
65173;BME280;69059;52.218;5.172;2023-05-31T05:41:04;100207.53;;;11.53;100.00
65173;BME280;69059;52.218;5.172;2023-05-31T05:43:37;100209.19;;;11.60;100.00
65173;BME280;69059;52.218;5.172;2023-05-31T05:46:06;100204.38;;;11.64;100.00
65173;BME280;69059;52.218;5.172;2023-05-31T05:48:34;100215.22;;;11.74;100.00
65173;BME280;69059;52.218;5.172;2023-05-31T05:51:02;100217.06;;;11.87;100.00
65173;BME280;69059;52.218;5.172;2023-05-31T05:53:30;100215.06;;;11.89;100.00
65173;BME280;69059;52.218;5.172;2023-05-31T05:55:58;100221.91;;;12.03;100.00
65173;BME280;69059;52.218;5.172;2023-05-31T05:58:26;100225.13;;;12.11;100.00
65173;BME280;69059;52.218;5.172;2023-05-31T06:00:54;100231.34;;;12.17;100.00
65173;BME280;69059;52.218;5.172;2023-05-31T06:03:23;100236.78;;;12.22;100.00
65173;BME280;69059;52.218;5.172;2023-05-31T06:05:51;100247.22;;;12.35;100.00
65173;BME280;69059;52.218;5.172;2023-05-31T06:08:19;100247.44;;;12.40;100.00
65173;BME280;69059;52.218;5.172;2023-05-31T06:10:46;100262.31;;;12.46;100.00
65173;BME280;69059;52.218;5.172;2023-05-31T06:13:14;100278.00;;;12.60;100.00
65173;BME280;69059;52.218;5.172;2023-05-31T06:15:42;100278.97;;;12.72;100.00
65173;BME280;69059;52.218;5.172;2023-05-31T06:18:10;100281.38;;;12.80;100.00
65173;BME280;69059;52.218;5.172;2023-05-31T06:20:39;100297.06;;;12.93;100.00
65173;BME280;69059;52.218;5.172;2023-05-31T06:23:07;100294.38;;;13.06;100.00
65173;BME280;69059;52.218;5.172;2023-05-31T06:25:35;100311.69;;;13.27;100.00
65173;BME280;69059;52.218;5.172;2023-05-31T06:28:03;100318.25;;;13.43;100.00
65173;BME280;69059;52.218;5.172;2023-05-31T06:30:31;100336.34;;;13.64;100.00
65173;BME280;69059;52.218;5.172;2023-05-31T06:32:59;100374.59;;;13.78;100.00
65173;BME280;69059;52.218;5.172;2023-05-31T06:35:26;100409.06;;;13.82;100.00
65173;BME280;69059;52.218;5.172;2023-05-31T06:37:57;100385.97;;;14.04;100.00
65173;BME280;69059;52.218;5.172;2023-05-31T06:40:25;100445.06;;;14.13;100.00
65173;BME280;69059;52.218;5.172;2023-05-31T06:42:53;100463.84;;;14.16;100.00
65173;BME280;69059;52.218;5.172;2023-05-31T06:45:20;100463.25;;;14.08;100.00
65173;BME280;69059;52.218;5.172;2023-05-31T06:47:48;100448.56;;;14.31;100.00
65173;BME280;69059;52.218;5.172;2023-05-31T06:50:16;100484.31;;;14.70;100.00
65173;BME280;69059;52.218;5.172;2023-05-31T06:52:44;100530.63;;;14.96;100.00
65173;BME280;69059;52.218;5.172;2023-05-31T06:55:13;100601.03;;;14.94;100.00
65173;BME280;69059;52.218;5.172;2023-05-31T06:57:41;100642.56;;;15.11;100.00
65173;BME280;69059;52.218;5.172;2023-05-31T07:00:10;100687.38;;;15.29;100.00
65173;BME280;69059;52.218;5.172;2023-05-31T07:02:38;100726.09;;;15.47;100.00
65173;BME280;69059;52.218;5.172;2023-05-31T07:05:07;100772.97;;;15.63;100.00
65173;BME280;69059;52.218;5.172;2023-05-31T07:07:35;100830.16;;;15.81;100.00
65173;BME280;69059;52.218;5.172;2023-05-31T07:10:03;100903.88;;;15.81;100.00
65173;BME280;69059;52.218;5.172;2023-05-31T07:12:33;100941.28;;;15.89;100.00
65173;BME280;69059;52.218;5.172;2023-05-31T07:15:01;101009.06;;;16.07;100.00
65173;BME280;69059;52.218;5.172;2023-05-31T07:17:28;101046.91;;;16.12;100.00
65173;BME280;69059;52.218;5.172;2023-05-31T07:19:56;101096.69;;;16.27;100.00
65173;BME280;69059;52.218;5.172;2023-05-31T07:22:24;101130.84;;;16.47;100.00
65173;BME280;69059;52.218;5.172;2023-05-31T07:24:52;101194.75;;;16.36;100.00
65173;BME280;69059;52.218;5.172;2023-05-31T07:27:21;101210.31;;;16.64;100.00
65173;BME280;69059;52.218;5.172;2023-05-31T07:29:50;101270.50;;;16.73;100.00
65173;BME280;69059;52.218;5.172;2023-05-31T07:32:18;101327.28;;;16.82;100.00
65173;BME280;69059;52.218;5.172;2023-05-31T07:34:46;101361.72;;;16.94;100.00
65173;BME280;69059;52.218;5.172;2023-05-31T07:37:30;101396.97;;;17.19;100.00
65173;BME280;69059;52.218;5.172;2023-05-31T07:39:58;101429.78;;;17.37;100.00
65173;BME280;69059;52.218;5.172;2023-05-31T07:42:26;101470.94;;;17.58;100.00
65173;BME280;69059;52.218;5.172;2023-05-31T07:44:56;101515.00;;;17.70;100.00
65173;BME280;69059;52.218;5.172;2023-05-31T07:47:24;101563.16;;;17.52;100.00
65173;BME280;69059;52.218;5.172;2023-05-31T07:49:52;101568.44;;;17.59;100.00
65173;BME280;69059;52.218;5.172;2023-05-31T07:52:20;101624.88;;;17.51;100.00
65173;BME280;69059;52.218;5.172;2023-05-31T07:54:49;101601.91;;;17.85;100.00
65173;BME280;69059;52.218;5.172;2023-05-31T07:57:16;101681.50;;;18.15;100.00
65173;BME280;69059;52.218;5.172;2023-05-31T07:59:44;101718.25;;;18.30;100.00
65173;BME280;69059;52.218;5.172;2023-05-31T08:02:14;101762.78;;;18.33;100.00
65173;BME280;69059;52.218;5.172;2023-05-31T08:04:42;101818.28;;;18.39;100.00
65173;BME280;69059;52.218;5.172;2023-05-31T08:07:10;101833.72;;;18.62;100.00
65173;BME280;69059;52.218;5.172;2023-05-31T08:09:38;101920.16;;;18.42;100.00
65173;BME280;69059;52.218;5.172;2023-05-31T08:12:06;101916.09;;;18.85;100.00
65173;BME280;69059;52.218;5.172;2023-05-31T08:14:34;101915.00;;;19.13;100.00
65173;BME280;69059;52.218;5.172;2023-05-31T08:17:02;101937.31;;;19.43;100.00
65173;BME280;69059;52.218;5.172;2023-05-31T08:19:31;101965.41;;;19.57;100.00
65173;BME280;69059;52.218;5.172;2023-05-31T08:21:59;102001.56;;;19.77;100.00
65173;BME280;69059;52.218;5.172;2023-05-31T08:24:27;102067.00;;;19.83;100.00
65173;BME280;69059;52.218;5.172;2023-05-31T08:26:55;102119.91;;;20.02;100.00
65173;BME280;69059;52.218;5.172;2023-05-31T08:29:24;102104.91;;;20.34;100.00
65173;BME280;69059;52.218;5.172;2023-05-31T08:31:52;102185.34;;;20.15;100.00
65173;BME280;69059;52.218;5.172;2023-05-31T08:34:20;102173.19;;;20.52;100.00
65173;BME280;69059;52.218;5.172;2023-05-31T08:36:49;102259.34;;;20.43;100.00
65173;BME280;69059;52.218;5.172;2023-05-31T08:39:16;102287.28;;;20.46;100.00
65173;BME280;69059;52.218;5.172;2023-05-31T08:41:47;102306.13;;;20.89;100.00
65173;BME280;69059;52.218;5.172;2023-05-31T08:44:19;102333.75;;;21.26;100.00
65173;BME280;69059;52.218;5.172;2023-05-31T08:46:47;102380.75;;;21.25;100.00
65173;BME280;69059;52.218;5.172;2023-05-31T08:49:15;102367.81;;;21.73;100.00
65173;BME280;69059;52.218;5.172;2023-05-31T08:51:44;102396.75;;;21.88;100.00
65173;BME280;69059;52.218;5.172;2023-05-31T08:54:14;102414.00;;;22.10;100.00
65173;BME280;69059;52.218;5.172;2023-05-31T08:56:44;102417.47;;;22.11;100.00
65173;BME280;69059;52.218;5.172;2023-05-31T08:59:14;102425.78;;;22.21;100.00
65173;BME280;69059;52.218;5.172;2023-05-31T09:01:44;102433.56;;;21.85;100.00
65173;BME280;69059;52.218;5.172;2023-05-31T09:04:13;102432.88;;;21.96;100.00
65173;BME280;69059;52.218;5.172;2023-05-31T09:06:41;102441.28;;;21.93;100.00
65173;BME280;69059;52.218;5.172;2023-05-31T09:09:09;102415.19;;;22.14;100.00
65173;BME280;69059;52.218;5.172;2023-05-31T09:11:38;102408.03;;;22.15;100.00
65173;BME280;69059;52.218;5.172;2023-05-31T09:14:07;102440.97;;;22.14;100.00
65173;BME280;69059;52.218;5.172;2023-05-31T09:16:36;102445.22;;;21.84;100.00
65173;BME280;69059;52.218;5.172;2023-05-31T09:19:04;102430.06;;;21.91;100.00
65173;BME280;69059;52.218;5.172;2023-05-31T09:21:38;102425.94;;;21.95;100.00
65173;BME280;69059;52.218;5.172;2023-05-31T09:24:06;102425.03;;;22.14;100.00
65173;BME280;69059;52.218;5.172;2023-05-31T09:26:34;102428.28;;;22.16;100.00
65173;BME280;69059;52.218;5.172;2023-05-31T09:29:06;102430.97;;;22.09;100.00
65173;BME280;69059;52.218;5.172;2023-05-31T09:31:34;102434.16;;;22.25;100.00
65173;BME280;69059;52.218;5.172;2023-05-31T09:34:01;102430.28;;;22.45;100.00
65173;BME280;69059;52.218;5.172;2023-05-31T09:36:30;102424.09;;;22.70;100.00
65173;BME280;69059;52.218;5.172;2023-05-31T09:38:59;102441.81;;;22.58;100.00
65173;BME280;69059;52.218;5.172;2023-05-31T09:41:32;102441.91;;;22.76;100.00
65173;BME280;69059;52.218;5.172;2023-05-31T09:44:00;102443.00;;;22.86;100.00
65173;BME280;69059;52.218;5.172;2023-05-31T09:46:29;102431.03;;;22.96;100.00
65173;BME280;69059;52.218;5.172;2023-05-31T09:48:59;102438.97;;;23.02;100.00
65173;BME280;69059;52.218;5.172;2023-05-31T09:51:28;102440.19;;;23.18;100.00
65173;BME280;69059;52.218;5.172;2023-05-31T09:53:56;102462.31;;;23.37;100.00
65173;BME280;69059;52.218;5.172;2023-05-31T09:56:25;102447.19;;;23.49;100.00
65173;BME280;69059;52.218;5.172;2023-05-31T09:58:56;102453.50;;;23.36;100.00
65173;BME280;69059;52.218;5.172;2023-05-31T10:01:24;102472.09;;;23.25;100.00
65173;BME280;69059;52.218;5.172;2023-05-31T10:03:54;102449.91;;;23.12;100.00
65173;BME280;69059;52.218;5.172;2023-05-31T10:06:22;102471.66;;;23.09;100.00
65173;BME280;69059;52.218;5.172;2023-05-31T10:08:51;102466.09;;;23.11;100.00
65173;BME280;69059;52.218;5.172;2023-05-31T10:11:24;102466.41;;;23.39;100.00
65173;BME280;69059;52.218;5.172;2023-05-31T10:13:56;102465.47;;;23.45;100.00
65173;BME280;69059;52.218;5.172;2023-05-31T10:16:26;102457.44;;;23.34;100.00
65173;BME280;69059;52.218;5.172;2023-05-31T10:18:59;102437.66;;;23.41;100.00
65173;BME280;69059;52.218;5.172;2023-05-31T10:21:28;102472.41;;;23.53;100.00
65173;BME280;69059;52.218;5.172;2023-05-31T10:23:57;102449.38;;;23.70;100.00
65173;BME280;69059;52.218;5.172;2023-05-31T10:26:35;102465.50;;;23.93;100.00
65173;BME280;69059;52.218;5.172;2023-05-31T10:29:09;102478.53;;;23.83;100.00
65173;BME280;69059;52.218;5.172;2023-05-31T10:31:49;102450.53;;;23.92;100.00
65173;BME280;69059;52.218;5.172;2023-05-31T10:34:22;102422.88;;;24.28;100.00
65173;BME280;69059;52.218;5.172;2023-05-31T10:36:51;102429.28;;;24.51;100.00
65173;BME280;69059;52.218;5.172;2023-05-31T10:39:25;102444.25;;;24.75;100.00
65173;BME280;69059;52.218;5.172;2023-05-31T10:42:01;102430.41;;;25.02;100.00
65173;BME280;69059;52.218;5.172;2023-05-31T10:44:38;102431.78;;;25.16;100.00
65173;BME280;69059;52.218;5.172;2023-05-31T10:47:09;102462.31;;;25.08;100.00
65173;BME280;69059;52.218;5.172;2023-05-31T10:49:42;102456.78;;;24.63;100.00
65173;BME280;69059;52.218;5.172;2023-05-31T10:52:10;102428.31;;;24.92;100.00
65173;BME280;69059;52.218;5.172;2023-05-31T10:54:41;102445.72;;;24.83;100.00
65173;BME280;69059;52.218;5.172;2023-05-31T10:57:08;102425.91;;;24.79;100.00
65173;BME280;69059;52.218;5.172;2023-05-31T11:02:05;102439.56;;;25.17;100.00
65173;BME280;69059;52.218;5.172;2023-05-31T11:04:33;102416.97;;;25.53;100.00
65173;BME280;69059;52.218;5.172;2023-05-31T11:07:15;102400.84;;;25.77;100.00
65173;BME280;69059;52.218;5.172;2023-05-31T11:09:56;102448.25;;;25.64;100.00
65173;BME280;69059;52.218;5.172;2023-05-31T11:12:31;102430.50;;;25.75;100.00
65173;BME280;69059;52.218;5.172;2023-05-31T11:14:59;102421.38;;;26.04;100.00
65173;BME280;69059;52.218;5.172;2023-05-31T11:17:27;102423.97;;;25.83;100.00
65173;BME280;69059;52.218;5.172;2023-05-31T11:19:55;102447.06;;;25.60;100.00
65173;BME280;69059;52.218;5.172;2023-05-31T11:22:28;102400.44;;;25.68;100.00
65173;BME280;69059;52.218;5.172;2023-05-31T11:24:56;102446.84;;;25.22;100.00
65173;BME280;69059;52.218;5.172;2023-05-31T11:27:34;102428.41;;;25.20;100.00
65173;BME280;69059;52.218;5.172;2023-05-31T11:30:03;102411.97;;;25.28;100.00
65173;BME280;69059;52.218;5.172;2023-05-31T11:32:56;102433.34;;;25.28;100.00
65173;BME280;69059;52.218;5.172;2023-05-31T11:35:31;102417.69;;;25.49;100.00
65173;BME280;69059;52.218;5.172;2023-05-31T11:38:04;102416.00;;;25.88;100.00
65173;BME280;69059;52.218;5.172;2023-05-31T11:40:34;102412.03;;;26.24;100.00
65173;BME280;69059;52.218;5.172;2023-05-31T11:43:05;102406.19;;;26.27;100.00
65173;BME280;69059;52.218;5.172;2023-05-31T11:45:40;102425.44;;;26.40;100.00
65173;BME280;69059;52.218;5.172;2023-05-31T11:48:40;102441.41;;;26.52;100.00
65173;BME280;69059;52.218;5.172;2023-05-31T11:51:13;102434.84;;;25.93;100.00
65173;BME280;69059;52.218;5.172;2023-05-31T11:53:42;102439.38;;;26.26;100.00
65173;BME280;69059;52.218;5.172;2023-05-31T11:56:11;102427.44;;;26.50;100.00
65173;BME280;69059;52.218;5.172;2023-05-31T11:58:45;102425.53;;;26.46;100.00
65173;BME280;69059;52.218;5.172;2023-05-31T12:01:13;102419.25;;;26.95;100.00
65173;BME280;69059;52.218;5.172;2023-05-31T12:03:41;102423.94;;;26.88;100.00
65173;BME280;69059;52.218;5.172;2023-05-31T12:06:09;102403.56;;;27.31;100.00
65173;BME280;69059;52.218;5.172;2023-05-31T12:08:37;102407.66;;;27.60;100.00
65173;BME280;69059;52.218;5.172;2023-05-31T12:11:06;102417.66;;;27.70;100.00
65173;BME280;69059;52.218;5.172;2023-05-31T12:13:34;102418.22;;;27.23;100.00
65173;BME280;69059;52.218;5.172;2023-05-31T12:16:04;102402.75;;;27.84;100.00
65173;BME280;69059;52.218;5.172;2023-05-31T12:18:32;102394.06;;;27.18;100.00
65173;BME280;69059;52.218;5.172;2023-05-31T12:21:05;102402.78;;;27.89;100.00
65173;BME280;69059;52.218;5.172;2023-05-31T12:23:33;102401.44;;;28.19;100.00
65173;BME280;69059;52.218;5.172;2023-05-31T12:26:19;102388.16;;;28.44;100.00
65173;BME280;69059;52.218;5.172;2023-05-31T12:28:48;102403.25;;;28.55;100.00
65173;BME280;69059;52.218;5.172;2023-05-31T12:31:20;102411.72;;;28.00;100.00
65173;BME280;69059;52.218;5.172;2023-05-31T12:34:08;102407.41;;;28.73;100.00
65173;BME280;69059;52.218;5.172;2023-05-31T12:36:37;102398.91;;;28.96;100.00
65173;BME280;69059;52.218;5.172;2023-05-31T12:39:09;102388.75;;;29.29;100.00
65173;BME280;69059;52.218;5.172;2023-05-31T12:41:41;102399.75;;;29.17;100.00
65173;BME280;69059;52.218;5.172;2023-05-31T12:44:09;102425.59;;;29.18;100.00
65173;BME280;69059;52.218;5.172;2023-05-31T12:46:38;102400.75;;;28.91;100.00
65173;BME280;69059;52.218;5.172;2023-05-31T12:49:20;102411.13;;;29.34;100.00
65173;BME280;69059;52.218;5.172;2023-05-31T12:51:48;102400.66;;;29.38;100.00
65173;BME280;69059;52.218;5.172;2023-05-31T12:54:16;102388.00;;;29.43;100.00